createdAt,value
2023-02-15T00:00:31.930Z,-23781.34
2023-02-15T00:03:00.086Z,-23781.25
2023-02-15T00:08:15.813Z,-23782.69
2023-02-15T00:10:43.903Z,-23781.75
2023-02-15T00:13:12.422Z,-23781.31
2023-02-15T00:15:41.726Z,-23781.43
2023-02-15T00:18:09.841Z,-23781.50
2023-02-15T00:20:37.971Z,-23781.53
2023-02-15T00:23:06.132Z,-23781.37
2023-02-15T00:25:34.563Z,-23781.21
2023-02-15T00:28:02.827Z,-23781.06
2023-02-15T00:30:31.089Z,-23781.06
2023-02-15T00:32:59.338Z,-23780.96
2023-02-15T00:35:28.443Z,-23780.55
2023-02-15T00:37:57.343Z,-23780.87
2023-02-15T00:40:26.065Z,-23781.00
2023-02-15T00:42:55.283Z,-23780.99
2023-02-15T00:45:23.501Z,-23780.87
2023-02-15T00:47:51.779Z,-23780.52
2023-02-15T00:50:21.199Z,-23780.24
2023-02-15T00:52:50.766Z,-23780.20
2023-02-15T00:55:18.974Z,-23780.21
2023-02-15T00:57:48.786Z,-23780.30
2023-02-15T01:00:19.106Z,-23779.73
2023-02-15T01:02:47.542Z,-23779.92
2023-02-15T01:05:16.345Z,-23779.86
2023-02-15T01:07:45.466Z,-23780.05
2023-02-15T01:10:13.604Z,-23780.02
2023-02-15T01:12:46.088Z,-23779.42
2023-02-15T01:15:14.241Z,-23779.48
2023-02-15T01:17:42.688Z,-23779.29
2023-02-15T01:20:11.279Z,-23778.97
2023-02-15T01:22:39.492Z,-23778.54
2023-02-15T01:25:07.982Z,-23778.03
2023-02-15T01:27:36.419Z,-23777.53
2023-02-15T01:30:10.006Z,-23777.43
2023-02-15T01:32:38.551Z,-23777.59
2023-02-15T01:35:11.365Z,-23778.41
2023-02-15T01:37:39.640Z,-23778.69
2023-02-15T01:40:10.023Z,-23779.13
2023-02-15T01:42:38.253Z,-23779.86
2023-02-15T01:45:23.420Z,-23780.71
2023-02-15T01:48:18.975Z,-23781.43
2023-02-15T01:50:57.085Z,-23782.06
2023-02-15T01:53:30.410Z,-23782.45
2023-02-15T01:56:02.717Z,-23782.85
2023-02-15T01:58:31.518Z,-23782.88
2023-02-15T02:01:01.363Z,-23782.66
2023-02-15T02:04:03.039Z,-23782.44
2023-02-15T02:06:32.961Z,-23782.51
2023-02-15T02:09:02.745Z,-23782.13
2023-02-15T02:11:31.765Z,-23781.53
2023-02-15T02:13:59.982Z,-23780.65
2023-02-15T02:16:28.037Z,-23779.70
2023-02-15T02:19:11.586Z,-23778.66
2023-02-15T02:21:50.953Z,-23778.13
2023-02-15T02:24:41.887Z,-23776.74
2023-02-15T02:27:27.579Z,-23775.51
2023-02-15T02:30:17.257Z,-23774.72
2023-02-15T02:32:52.751Z,-23773.56
2023-02-15T02:35:59.805Z,-23772.80
2023-02-15T02:38:43.715Z,-23772.55
2023-02-15T02:41:37.605Z,-23771.77
2023-02-15T02:44:24.334Z,-23771.51
2023-02-15T02:47:01.371Z,-23771.73
2023-02-15T02:49:37.591Z,-23772.01
2023-02-15T02:52:27.830Z,-23771.70
2023-02-15T02:54:58.504Z,-23771.45
2023-02-15T02:57:28.055Z,-23771.26
2023-02-15T03:00:00.542Z,-23771.35
2023-02-15T03:02:33.712Z,-23771.39
2023-02-15T03:05:08.044Z,-23771.23
2023-02-15T03:07:37.048Z,-23771.54
2023-02-15T03:10:06.602Z,-23771.23
2023-02-15T03:12:40.344Z,-23770.91
2023-02-15T03:15:17.737Z,-23770.91
2023-02-15T03:17:49.834Z,-23771.13
2023-02-15T03:20:30.779Z,-23771.23
2023-02-15T03:23:07.442Z,-23771.20
2023-02-15T03:25:38.211Z,-23771.20
2023-02-15T03:28:09.130Z,-23771.29
2023-02-15T03:30:37.879Z,-23771.23
2023-02-15T03:33:06.279Z,-23770.70
2023-02-15T03:35:41.952Z,-23770.66
2023-02-15T03:38:10.193Z,-23770.50
2023-02-15T03:40:57.518Z,-23770.41
2023-02-15T03:43:49.316Z,-23770.03
2023-02-15T03:46:41.151Z,-23770.03
2023-02-15T03:49:18.158Z,-23769.93
2023-02-15T03:51:48.052Z,-23769.81
2023-02-15T03:54:40.232Z,-23769.90
2023-02-15T03:57:28.113Z,-23770.06
2023-02-15T04:00:14.804Z,-23769.93
2023-02-15T04:03:07.768Z,-23769.90
2023-02-15T04:05:36.456Z,-23770.35
2023-02-15T04:08:05.550Z,-23770.47
2023-02-15T04:10:52.594Z,-23770.57
2023-02-15T04:13:21.669Z,-23770.32
2023-02-15T04:16:06.002Z,-23769.96
2023-02-15T04:18:59.684Z,-23769.81
2023-02-15T04:21:47.572Z,-23769.59
2023-02-15T04:24:35.117Z,-23769.40
2023-02-15T04:27:04.260Z,-23768.77
2023-02-15T04:29:32.510Z,-23767.98
2023-02-15T04:32:01.690Z,-23767.67
2023-02-15T04:34:30.196Z,-23767.82
2023-02-15T04:36:58.818Z,-23767.73
2023-02-15T04:39:26.939Z,-23767.61
2023-02-15T04:41:55.322Z,-23767.57
2023-02-15T04:44:23.437Z,-23767.45
2023-02-15T04:46:51.663Z,-23766.88
2023-02-15T04:49:20.004Z,-23766.41
2023-02-15T04:51:48.236Z,-23766.28
2023-02-15T04:54:17.345Z,-23765.68
2023-02-15T04:56:45.475Z,-23764.99
2023-02-15T04:59:17.800Z,-23764.42
2023-02-15T05:01:46.259Z,-23764.01
2023-02-15T05:04:16.220Z,-23763.35
2023-02-15T05:06:44.442Z,-23762.82
2023-02-15T05:09:14.501Z,-23762.37
2023-02-15T05:11:43.125Z,-23762.06
2023-02-15T05:14:13.046Z,-23761.68
2023-02-15T05:16:42.816Z,-23761.30
2023-02-15T05:19:11.029Z,-23760.71
2023-02-15T05:21:41.202Z,-23760.45
2023-02-15T05:24:28.421Z,-23760.32
2023-02-15T05:27:19.482Z,-23760.20
2023-02-15T05:29:47.715Z,-23760.07
2023-02-15T05:32:19.417Z,-23759.95
2023-02-15T05:34:48.004Z,-23759.10
2023-02-15T05:37:16.135Z,-23758.68
2023-02-15T05:39:44.374Z,-23758.31
2023-02-15T05:42:12.599Z,-23757.84
2023-02-15T05:44:40.903Z,-23757.39
2023-02-15T05:47:08.934Z,-23756.76
2023-02-15T05:49:38.127Z,-23756.64
2023-02-15T05:52:06.406Z,-23756.54
2023-02-15T05:54:34.469Z,-23756.64
2023-02-15T05:57:02.761Z,-23757.23
2023-02-15T05:59:31.993Z,-23758.06
2023-02-15T06:02:00.174Z,-23758.25
2023-02-15T06:04:28.577Z,-23758.28
2023-02-15T06:06:56.789Z,-23758.18
2023-02-15T06:09:25.523Z,-23758.31
2023-02-15T06:11:53.723Z,-23758.50
2023-02-15T06:14:22.276Z,-23758.62
2023-02-15T06:16:50.685Z,-23758.59
2023-02-15T06:19:19.146Z,-23757.77
2023-02-15T06:21:47.343Z,-23756.79
2023-02-15T06:24:15.782Z,-23756.64
2023-02-15T06:26:45.376Z,-23756.73
2023-02-15T06:29:13.630Z,-23756.67
2023-02-15T06:31:42.009Z,-23757.23
2023-02-15T06:34:10.257Z,-23757.52
2023-02-15T06:36:38.663Z,-23757.93
2023-02-15T06:39:07.247Z,-23758.28
2023-02-15T06:41:35.464Z,-23758.09
2023-02-15T06:44:03.722Z,-23757.62
2023-02-15T06:46:32.436Z,-23757.08
2023-02-15T06:49:00.654Z,-23756.10
2023-02-15T06:51:29.201Z,-23755.54
2023-02-15T06:53:58.567Z,-23755.38
2023-02-15T06:56:27.003Z,-23755.54
2023-02-15T06:58:55.747Z,-23755.60
2023-02-15T07:01:24.250Z,-23755.79
2023-02-15T07:03:52.334Z,-23755.60
2023-02-15T07:06:20.926Z,-23755.38
2023-02-15T07:08:49.279Z,-23755.00
2023-02-15T07:11:36.489Z,-23754.40
2023-02-15T07:14:04.639Z,-23753.17
2023-02-15T07:16:34.794Z,-23752.22
2023-02-15T07:19:03.228Z,-23751.53
2023-02-15T07:21:35.823Z,-23750.80
2023-02-15T07:24:04.373Z,-23750.17
2023-02-15T07:26:33.291Z,-23749.55
2023-02-15T07:29:01.505Z,-23749.23
2023-02-15T07:31:29.792Z,-23748.85
2023-02-15T07:33:57.978Z,-23748.44
2023-02-15T07:36:26.107Z,-23748.35
2023-02-15T07:38:54.354Z,-23748.35
2023-02-15T07:41:22.984Z,-23747.43
2023-02-15T07:43:51.379Z,-23746.74
2023-02-15T07:46:20.737Z,-23746.83
2023-02-15T07:48:49.188Z,-23746.89
2023-02-15T07:51:17.574Z,-23746.74
2023-02-15T07:53:45.800Z,-23746.71
2023-02-15T07:56:14.614Z,-23746.17
2023-02-15T07:58:52.337Z,-23745.44
2023-02-15T08:01:40.884Z,-23745.51
2023-02-15T08:04:12.130Z,-23745.98
2023-02-15T08:06:40.358Z,-23746.33
2023-02-15T08:09:14.019Z,-23747.31
2023-02-15T08:11:42.632Z,-23747.78
2023-02-15T08:14:11.727Z,-23748.38
2023-02-15T08:16:42.341Z,-23748.63
2023-02-15T08:19:13.597Z,-23749.32
2023-02-15T08:21:44.213Z,-23750.43
2023-02-15T08:24:13.597Z,-23751.37
2023-02-15T08:26:42.552Z,-23751.40
2023-02-15T08:29:11.371Z,-23751.88
2023-02-15T08:31:42.040Z,-23752.82
2023-02-15T08:34:12.491Z,-23753.45
2023-02-15T08:36:40.877Z,-23752.95
2023-02-15T08:39:09.149Z,-23752.89
2023-02-15T08:41:38.451Z,-23753.93
2023-02-15T08:44:07.821Z,-23754.78
2023-02-15T08:46:37.810Z,-23754.24
2023-02-15T08:49:06.778Z,-23753.33
2023-02-15T08:51:36.393Z,-23753.05
2023-02-15T08:54:06.496Z,-23752.76
2023-02-15T08:56:36.392Z,-23752.86
2023-02-15T08:59:05.041Z,-23753.20
2023-02-15T09:01:34.375Z,-23754.15
2023-02-15T09:04:06.454Z,-23755.12
2023-02-15T09:06:34.681Z,-23755.79
2023-02-15T09:09:04.808Z,-23755.88
2023-02-15T09:11:36.247Z,-23756.23
2023-02-15T09:14:09.267Z,-23756.86
2023-02-15T09:16:38.646Z,-23757.30
2023-02-15T09:19:07.066Z,-23756.76
2023-02-15T09:21:37.637Z,-23756.01
2023-02-15T09:24:07.919Z,-23756.39
2023-02-15T09:26:38.462Z,-23757.84
2023-02-15T09:29:06.523Z,-23758.84
2023-02-15T09:31:38.449Z,-23759.95
2023-02-15T09:34:06.878Z,-23761.21
2023-02-15T09:36:36.756Z,-23760.86
2023-02-15T09:39:15.759Z,-23760.98
2023-02-15T09:42:20.841Z,-23760.67
2023-02-15T09:44:52.046Z,-23759.76
2023-02-15T09:47:55.518Z,-23759.41
2023-02-15T09:50:29.440Z,-23759.07
2023-02-15T09:53:19.204Z,-23759.13
2023-02-15T09:56:02.977Z,-23759.85
2023-02-15T09:58:52.812Z,-23761.40
2023-02-15T10:01:24.704Z,-23763.16
2023-02-15T10:04:11.196Z,-23764.93
2023-02-15T10:07:17.090Z,-23766.91
2023-02-15T10:09:57.607Z,-23768.17
2023-02-15T10:12:32.016Z,-23769.18
2023-02-15T10:15:29.419Z,-23770.63
2023-02-15T10:18:24.400Z,-23772.02
2023-02-15T10:21:03.867Z,-23772.30
2023-02-15T10:23:32.215Z,-23772.65
2023-02-15T10:26:12.641Z,-23773.40
2023-02-15T10:28:43.801Z,-23774.66
2023-02-15T10:31:24.178Z,-23776.23
2023-02-15T10:34:10.928Z,-23777.59
2023-02-15T10:36:54.888Z,-23778.51
2023-02-15T10:39:29.369Z,-23779.70
2023-02-15T10:42:07.729Z,-23781.87
2023-02-15T10:45:09.010Z,-23784.52
2023-02-15T10:47:44.597Z,-23786.54
2023-02-15T10:50:54.354Z,-23788.02
2023-02-15T10:53:52.109Z,-23787.70
2023-02-15T10:56:28.085Z,-23787.36
2023-02-15T10:59:10.069Z,-23787.70
2023-02-15T11:01:41.871Z,-23787.67
2023-02-15T11:04:31.960Z,-23787.98
2023-02-15T11:07:56.046Z,-23788.90
2023-02-15T11:10:45.889Z,-23790.00
2023-02-15T11:13:18.997Z,-23790.91
2023-02-15T11:15:57.050Z,-23792.11
2023-02-15T11:18:40.120Z,-23793.75
2023-02-15T11:21:15.728Z,-23795.95
2023-02-15T11:23:48.566Z,-23798.50
2023-02-15T11:26:26.016Z,-23800.98
2023-02-15T11:29:00.511Z,-23802.18
2023-02-15T11:31:33.874Z,-23803.03
2023-02-15T11:34:04.695Z,-23803.85
2023-02-15T11:36:38.678Z,-23803.98
2023-02-15T11:39:11.327Z,-23805.30
2023-02-15T11:41:41.428Z,-23807.16
2023-02-15T11:44:16.979Z,-23809.01
2023-02-15T11:46:45.106Z,-23810.83
2023-02-15T11:49:23.929Z,-23812.22
2023-02-15T11:51:52.085Z,-23813.26
2023-02-15T11:54:21.842Z,-23813.86
2023-02-15T11:56:50.424Z,-23814.64
2023-02-15T11:59:28.881Z,-23816.31
2023-02-15T12:01:57.704Z,-23818.98
2023-02-15T12:04:36.189Z,-23821.12
2023-02-15T12:07:23.784Z,-23822.69
2023-02-15T12:10:05.429Z,-23824.21
2023-02-15T12:12:35.841Z,-23825.53
2023-02-15T12:15:06.330Z,-23825.56
2023-02-15T12:17:37.654Z,-23826.25
2023-02-15T12:20:15.012Z,-23827.32
2023-02-15T12:23:05.852Z,-23828.67
2023-02-15T12:25:36.704Z,-23830.06
2023-02-15T12:28:36.909Z,-23831.41
2023-02-15T12:31:28.183Z,-23831.53
2023-02-15T12:33:59.189Z,-23831.09
2023-02-15T12:36:31.041Z,-23831.21
2023-02-15T12:39:06.677Z,-23832.13
2023-02-15T12:41:35.449Z,-23832.73
2023-02-15T12:44:04.885Z,-23833.67
2023-02-15T12:46:38.216Z,-23834.77
2023-02-15T12:49:09.320Z,-23835.90
2023-02-15T12:51:45.868Z,-23837.92
2023-02-15T12:54:23.884Z,-23840.02
2023-02-15T12:56:52.886Z,-23841.21
2023-02-15T12:59:23.685Z,-23842.69
2023-02-15T13:01:55.292Z,-23844.11
2023-02-15T13:04:28.640Z,-23844.14
2023-02-15T13:06:59.715Z,-23844.39
2023-02-15T13:09:32.157Z,-23844.83
2023-02-15T13:12:17.586Z,-23845.74
2023-02-15T13:14:46.918Z,-23847.35
2023-02-15T13:17:15.480Z,-23849.11
2023-02-15T13:19:50.661Z,-23849.95
2023-02-15T13:22:25.248Z,-23851.09
2023-02-15T13:24:56.067Z,-23852.62
2023-02-15T13:27:28.364Z,-23853.41
2023-02-15T13:29:59.596Z,-23853.82
2023-02-15T13:32:31.518Z,-23854.26
2023-02-15T13:35:00.804Z,-23854.51
2023-02-15T13:37:58.607Z,-23854.73
2023-02-15T13:40:40.600Z,-23855.42
2023-02-15T13:43:32.036Z,-23856.46
2023-02-15T13:46:03.735Z,-23858.38
2023-02-15T13:48:54.198Z,-23859.06
2023-02-15T13:51:28.070Z,-23860.10
2023-02-15T13:54:00.121Z,-23859.76
2023-02-15T13:56:41.672Z,-23858.38
2023-02-15T13:59:22.425Z,-23857.49
2023-02-15T14:02:10.218Z,-23856.93
2023-02-15T14:05:12.907Z,-23856.93
2023-02-15T14:07:55.099Z,-23857.50
2023-02-15T14:10:34.802Z,-23857.94
2023-02-15T14:13:14.921Z,-23857.21
2023-02-15T14:15:49.221Z,-23856.87
2023-02-15T14:18:27.342Z,-23855.99
2023-02-15T14:21:10.736Z,-23854.70
2023-02-15T14:23:58.796Z,-23853.10
2023-02-15T14:26:39.250Z,-23851.75
2023-02-15T14:29:33.653Z,-23851.03
2023-02-15T14:32:05.728Z,-23850.83
2023-02-15T14:34:58.942Z,-23850.83
2023-02-15T14:37:43.175Z,-23850.71
2023-02-15T14:41:03.476Z,-23849.77
2023-02-15T14:43:53.810Z,-23849.26
2023-02-15T14:46:40.475Z,-23848.60
2023-02-15T14:49:18.557Z,-23848.10
2023-02-15T14:51:47.025Z,-23847.31
2023-02-15T14:54:19.011Z,-23846.69
2023-02-15T14:57:02.555Z,-23846.19
2023-02-15T14:59:36.773Z,-23845.93
2023-02-15T15:02:10.994Z,-23845.84
2023-02-15T15:04:39.896Z,-23845.27
2023-02-15T15:07:24.331Z,-23845.15
2023-02-15T15:10:03.330Z,-23844.99
2023-02-15T15:12:34.635Z,-23844.55
2023-02-15T15:15:02.911Z,-23843.98
2023-02-15T15:17:34.603Z,-23843.45
2023-02-15T15:20:14.731Z,-23842.54
2023-02-15T15:22:43.478Z,-23841.56
2023-02-15T15:25:53.720Z,-23841.03
2023-02-15T15:28:33.896Z,-23840.46
2023-02-15T15:31:15.435Z,-23840.18
2023-02-15T15:34:08.564Z,-23839.87
2023-02-15T15:36:49.311Z,-23839.45
2023-02-15T15:39:36.193Z,-23839.33
2023-02-15T15:42:33.026Z,-23838.98
2023-02-15T15:45:16.106Z,-23838.48
2023-02-15T15:48:13.722Z,-23838.27
2023-02-15T15:50:42.713Z,-23837.85
2023-02-15T15:53:21.398Z,-23837.60
2023-02-15T15:55:50.639Z,-23837.19
2023-02-15T15:58:19.341Z,-23836.72
2023-02-15T16:01:08.863Z,-23836.57
2023-02-15T16:03:38.247Z,-23836.13
2023-02-15T16:06:06.622Z,-23836.00
2023-02-15T16:08:37.419Z,-23836.06
2023-02-15T16:11:23.696Z,-23836.00
2023-02-15T16:13:51.936Z,-23835.78
2023-02-15T16:16:29.288Z,-23836.06
2023-02-15T16:19:00.658Z,-23836.25
2023-02-15T16:21:35.868Z,-23836.19
2023-02-15T16:24:20.973Z,-23836.38
2023-02-15T16:27:11.904Z,-23836.31
2023-02-15T16:29:40.673Z,-23836.13
2023-02-15T16:32:24.380Z,-23835.46
2023-02-15T16:34:57.207Z,-23835.28
2023-02-15T16:37:32.907Z,-23835.31
2023-02-15T16:40:01.122Z,-23835.68
2023-02-15T16:42:29.501Z,-23836.31
2023-02-15T16:45:24.739Z,-23836.82
2023-02-15T16:47:56.520Z,-23837.32
2023-02-15T16:50:35.782Z,-23837.85
2023-02-15T16:53:05.293Z,-23838.14
2023-02-15T16:55:39.644Z,-23838.01
2023-02-15T16:58:12.812Z,-23837.72
2023-02-15T17:00:42.257Z,-23837.50
2023-02-15T17:03:15.475Z,-23837.22
2023-02-15T17:05:47.071Z,-23836.63
2023-02-15T17:08:34.585Z,-23836.09
2023-02-15T17:11:15.853Z,-23835.75
2023-02-15T17:14:06.639Z,-23835.09
2023-02-15T17:16:42.030Z,-23834.21
2023-02-15T17:19:20.691Z,-23832.92
2023-02-15T17:22:22.064Z,-23831.63
2023-02-15T17:24:50.985Z,-23830.68
2023-02-15T17:27:23.452Z,-23829.83
2023-02-15T17:29:53.430Z,-23829.18
2023-02-15T17:32:24.160Z,-23828.99
2023-02-15T17:35:01.391Z,-23828.48
2023-02-15T17:37:42.642Z,-23827.73
2023-02-15T17:40:26.727Z,-23826.22
2023-02-15T17:42:54.915Z,-23824.49
2023-02-15T17:45:23.525Z,-23823.80
2023-02-15T17:47:52.454Z,-23822.85
2023-02-15T17:50:24.966Z,-23822.35
2023-02-15T17:52:58.279Z,-23821.69
2023-02-15T17:55:36.296Z,-23821.03
2023-02-15T17:58:15.078Z,-23820.12
2023-02-15T18:01:05.172Z,-23819.64
2023-02-15T18:04:08.981Z,-23818.76
2023-02-15T18:06:57.562Z,-23817.73
2023-02-15T18:09:44.680Z,-23817.54
2023-02-15T18:12:31.133Z,-23816.79
2023-02-15T18:15:00.760Z,-23816.12
2023-02-15T18:17:45.391Z,-23816.06
2023-02-15T18:20:24.972Z,-23815.87
2023-02-15T18:22:53.783Z,-23815.75
2023-02-15T18:25:23.827Z,-23815.71
2023-02-15T18:27:54.878Z,-23815.21
2023-02-15T18:30:25.671Z,-23814.64
2023-02-15T18:32:56.862Z,-23814.45
2023-02-15T18:35:27.005Z,-23814.20
2023-02-15T18:37:57.294Z,-23813.57
2023-02-15T18:40:26.660Z,-23812.60
2023-02-15T18:42:57.104Z,-23812.10
2023-02-15T18:45:28.810Z,-23811.75
2023-02-15T18:47:57.842Z,-23811.72
2023-02-15T18:50:28.091Z,-23811.46
2023-02-15T18:52:56.669Z,-23811.53
2023-02-15T18:55:26.302Z,-23811.15
2023-02-15T18:57:56.101Z,-23811.09
2023-02-15T19:00:34.891Z,-23810.62
2023-02-15T19:03:06.740Z,-23810.65
2023-02-15T19:05:35.614Z,-23810.37
2023-02-15T19:08:03.942Z,-23810.21
2023-02-15T19:10:33.297Z,-23810.27
2023-02-15T19:13:01.557Z,-23810.12
2023-02-15T19:15:30.782Z,-23809.92
2023-02-15T19:17:59.571Z,-23809.73
2023-02-15T19:20:44.288Z,-23809.42
2023-02-15T19:23:19.521Z,-23808.63
2023-02-15T19:25:49.632Z,-23808.25
2023-02-15T19:28:25.427Z,-23807.91
2023-02-15T19:30:54.120Z,-23807.44
2023-02-15T19:33:23.864Z,-23806.68
2023-02-15T19:35:56.189Z,-23805.99
2023-02-15T19:38:27.333Z,-23805.77
2023-02-15T19:40:57.374Z,-23805.52
2023-02-15T19:43:27.847Z,-23805.11
2023-02-15T19:45:56.301Z,-23804.95
2023-02-15T19:48:26.558Z,-23804.57
2023-02-15T19:50:57.478Z,-23804.42
2023-02-15T19:53:28.034Z,-23804.54
2023-02-15T19:55:57.886Z,-23804.54
2023-02-15T19:58:26.955Z,-23804.26
2023-02-15T20:00:55.968Z,-23804.04
2023-02-15T20:03:25.990Z,-23803.63
2023-02-15T20:05:55.055Z,-23803.19
2023-02-15T20:08:23.724Z,-23802.84
2023-02-15T20:10:53.753Z,-23802.75
2023-02-15T20:13:23.750Z,-23802.18
2023-02-15T20:15:52.271Z,-23801.68
2023-02-15T20:18:22.559Z,-23801.02
2023-02-15T20:20:52.302Z,-23800.83
2023-02-15T20:23:39.384Z,-23800.58
2023-02-15T20:26:15.112Z,-23800.39
2023-02-15T20:28:43.257Z,-23800.39
2023-02-15T20:31:18.817Z,-23800.26
2023-02-15T20:33:47.273Z,-23800.13
2023-02-15T20:36:22.656Z,-23799.85
2023-02-15T20:38:51.123Z,-23799.57
2023-02-15T20:41:36.283Z,-23799.13
2023-02-15T20:44:18.962Z,-23798.54
2023-02-15T20:46:48.642Z,-23797.93
2023-02-15T20:49:17.497Z,-23797.65
2023-02-15T20:51:47.539Z,-23797.59
2023-02-15T20:54:21.291Z,-23797.52
2023-02-15T20:56:50.152Z,-23797.15
2023-02-15T20:59:21.613Z,-23796.99
2023-02-15T21:01:50.595Z,-23796.83
2023-02-15T21:04:22.136Z,-23796.45
2023-02-15T21:06:50.351Z,-23796.23
2023-02-15T21:09:20.220Z,-23796.04
2023-02-15T21:11:49.183Z,-23796.26
2023-02-15T21:14:18.642Z,-23796.14
2023-02-15T21:16:47.832Z,-23795.86
2023-02-15T21:19:21.374Z,-23795.35
2023-02-15T21:21:51.246Z,-23795.07
2023-02-15T21:24:22.216Z,-23795.13
2023-02-15T21:26:51.512Z,-23794.91
2023-02-15T21:29:21.014Z,-23794.79
2023-02-15T21:31:49.406Z,-23794.79
2023-02-15T21:34:20.765Z,-23795.10
2023-02-15T21:36:51.048Z,-23795.00
2023-02-15T21:39:24.330Z,-23794.59
2023-02-15T21:42:11.680Z,-23794.53
2023-02-15T21:44:58.799Z,-23794.63
2023-02-15T21:47:47.995Z,-23794.00
2023-02-15T21:50:40.534Z,-23793.34
2023-02-15T21:53:14.000Z,-23793.24
2023-02-15T21:55:43.509Z,-23792.96
2023-02-15T21:58:19.190Z,-23792.64
2023-02-15T22:00:47.857Z,-23792.33
2023-02-15T22:03:16.232Z,-23792.02
2023-02-15T22:05:44.422Z,-23791.89
2023-02-15T22:08:15.992Z,-23791.57
2023-02-15T22:10:44.603Z,-23791.17
2023-02-15T22:13:17.672Z,-23790.25
2023-02-15T22:15:47.353Z,-23789.34
2023-02-15T22:18:40.429Z,-23789.12
2023-02-15T22:21:09.930Z,-23789.05
2023-02-15T22:23:39.527Z,-23789.02
2023-02-15T22:26:09.431Z,-23788.64
2023-02-15T22:28:40.396Z,-23787.70
2023-02-15T22:31:15.713Z,-23787.07
2023-02-15T22:33:44.970Z,-23787.01
2023-02-15T22:36:23.215Z,-23786.69
2023-02-15T22:38:51.908Z,-23786.50
2023-02-15T22:41:20.416Z,-23786.35
2023-02-15T22:43:48.655Z,-23786.16
2023-02-15T22:46:19.268Z,-23786.60
2023-02-15T22:48:48.422Z,-23786.85
2023-02-15T22:51:18.703Z,-23786.72
2023-02-15T22:53:49.778Z,-23786.66
2023-02-15T22:56:38.193Z,-23786.29
2023-02-15T22:59:08.661Z,-23785.65
2023-02-15T23:01:37.018Z,-23785.50
2023-02-15T23:04:05.623Z,-23785.46
2023-02-15T23:06:34.502Z,-23785.31
2023-02-15T23:09:02.678Z,-23785.15
2023-02-15T23:11:31.075Z,-23785.59
2023-02-15T23:13:59.236Z,-23785.21
2023-02-15T23:16:27.622Z,-23785.24
2023-02-15T23:18:55.856Z,-23785.53
2023-02-15T23:21:24.238Z,-23785.21
2023-02-15T23:23:55.699Z,-23785.15
2023-02-15T23:26:27.693Z,-23784.89
2023-02-15T23:28:57.206Z,-23784.68
2023-02-15T23:31:30.803Z,-23784.36
2023-02-15T23:34:17.444Z,-23783.98
2023-02-15T23:36:46.216Z,-23783.70
2023-02-15T23:39:34.569Z,-23783.42
2023-02-15T23:42:07.726Z,-23783.73
2023-02-15T23:44:35.951Z,-23783.83
2023-02-15T23:47:04.631Z,-23783.70
2023-02-15T23:49:33.415Z,-23783.51
2023-02-15T23:52:01.591Z,-23782.88
2023-02-15T23:54:30.296Z,-23782.57
2023-02-15T23:57:00.326Z,-23782.10
2023-02-15T23:59:30.407Z,-23781.37
